LDSP/SPU METAR and TAF weather

Enter ICAO airport designator
Station Type Date Time Source
LDSP METAR 2022/01/26 19:30 UTC NOAA

LDSP 261930Z 32013KT CAVOK 07/01 Q1026 NOSIG


Station Type Date Time Source
LDSP Decoded METAR 2022/01/26 19:30 UTC NOAA

Split / Resnik, Croatia (LDSP) 43-32N 016-18E 21M
Jan 26, 2022 - 02:30 PM EST / 2022.01.26 1930 UTC
Wind: from the NW (320 degrees) at 15 MPH (13 KT):0
Visibility: greater than 7 mile(s):0
Temperature: 44 F (7 C)
Dew Point: 33 F (1 C)
Relative Humidity: 65%
Pressure (altimeter): 30.30 in. Hg (1026 hPa)
ob: LDSP 261930Z 32013KT CAVOK 07/01 Q1026 NOSIG
cycle: 19

Station Type Date Time Source
LDSP TAF 2022/01/26 18:27 UTC NOAA

TAF LDSP 261725Z 2618/2718 31009KT CAVOK TX12/2714Z TN03/2703Z

Example: see airport list